createdAt,value
2019-01-10T00:00:15.120Z,7.77
2019-01-10T00:02:43.557Z,8.00
2019-01-10T00:05:12.400Z,8.27
2019-01-10T00:07:40.888Z,7.37
2019-01-10T00:10:13.947Z,8.20
2019-01-10T00:12:42.450Z,7.13
2019-01-10T00:15:13.413Z,8.00
2019-01-10T00:17:41.896Z,6.10
2019-01-10T00:20:11.940Z,7.93
2019-01-10T00:22:40.368Z,6.50
2019-01-10T00:25:10.945Z,7.80
2019-01-10T00:27:39.365Z,7.40
2019-01-10T00:30:13.436Z,6.80
2019-01-10T00:32:41.924Z,7.37
2019-01-10T00:35:10.882Z,7.50
2019-01-10T00:37:39.577Z,6.23
2019-01-10T00:40:10.720Z,6.20
2019-01-10T00:42:48.574Z,5.80
2019-01-10T00:45:12.223Z,7.27
2019-01-10T00:47:40.786Z,6.17
2019-01-10T00:50:14.696Z,6.47
2019-01-10T00:52:43.202Z,6.60
2019-01-10T00:55:11.855Z,6.60
2019-01-10T00:57:41.050Z,6.80
2019-01-10T01:00:12.532Z,7.50
2019-01-10T01:02:40.983Z,6.70
2019-01-10T01:05:11.820Z,6.73
2019-01-10T01:07:40.312Z,6.73
2019-01-10T01:10:14.454Z,6.70
2019-01-10T01:12:42.949Z,6.67
2019-01-10T01:15:13.696Z,6.57
2019-01-10T01:17:42.291Z,5.50
2019-01-10T01:20:12.529Z,7.07
2019-01-10T01:22:40.992Z,6.30
2019-01-10T01:25:11.178Z,7.40
2019-01-10T01:27:39.664Z,7.37
2019-01-10T01:30:11.393Z,7.30
2019-01-10T01:32:39.800Z,7.17
2019-01-10T01:35:08.882Z,6.00
2019-01-10T01:37:37.298Z,6.50
2019-01-10T01:40:09.358Z,7.40
2019-01-10T01:42:37.784Z,7.60
2019-01-10T01:45:08.641Z,6.83
2019-01-10T01:47:37.069Z,7.37
2019-01-10T01:50:08.572Z,7.47
2019-01-10T01:52:36.968Z,7.77
2019-01-10T01:55:06.137Z,6.67
2019-01-10T01:57:34.559Z,6.37
2019-01-10T02:00:03.070Z,6.97
2019-01-10T02:02:31.481Z,6.40
2019-01-10T02:04:59.896Z,7.13
2019-01-10T02:07:28.301Z,7.23
2019-01-10T02:09:56.724Z,6.93
2019-01-10T02:12:25.204Z,7.57
2019-01-10T02:14:53.643Z,8.40
2019-01-10T02:17:22.044Z,7.70
2019-01-10T02:19:50.477Z,7.60
2019-01-10T02:22:19.020Z,7.30
2019-01-10T02:24:47.449Z,8.50
2019-01-10T02:27:15.868Z,8.20
2019-01-10T02:29:44.310Z,8.73
2019-01-10T02:32:12.714Z,9.40
2019-01-10T02:34:41.153Z,8.37
2019-01-10T02:37:09.538Z,8.20
2019-01-10T02:39:37.976Z,9.20
2019-01-10T02:42:06.409Z,8.90
2019-01-10T02:44:34.859Z,9.10
2019-01-10T02:47:03.325Z,8.63
2019-01-10T02:49:31.766Z,9.40
2019-01-10T02:52:00.186Z,8.60
2019-01-10T02:54:28.601Z,9.13
2019-01-10T02:56:57.009Z,9.50
2019-01-10T02:59:25.452Z,10.00
2019-01-10T03:01:53.875Z,10.07
2019-01-10T03:04:22.295Z,8.83
2019-01-10T03:06:50.705Z,10.20
2019-01-10T03:09:19.197Z,9.80
2019-01-10T03:11:47.625Z,10.60
2019-01-10T03:14:16.046Z,9.80
2019-01-10T03:16:44.471Z,7.80
2019-01-10T03:19:12.961Z,8.07
2019-01-10T03:21:41.389Z,10.00
2019-01-10T03:24:09.773Z,9.53
2019-01-10T03:26:38.202Z,8.77
2019-01-10T03:29:06.606Z,7.63
2019-01-10T03:31:35.051Z,8.90
2019-01-10T03:34:03.590Z,7.73
2019-01-10T03:36:32.041Z,7.83
2019-01-10T03:39:00.462Z,8.50
2019-01-10T03:41:28.903Z,8.10
2019-01-10T03:43:57.309Z,8.10
2019-01-10T03:46:25.738Z,8.50
2019-01-10T03:48:54.159Z,9.40
2019-01-10T03:51:22.573Z,8.70
2019-01-10T03:53:51.013Z,8.37
2019-01-10T03:56:19.425Z,8.80
2019-01-10T03:58:47.838Z,8.90
2019-01-10T04:01:16.264Z,8.90
2019-01-10T04:03:44.767Z,8.97
2019-01-10T04:06:13.185Z,11.73
2019-01-10T04:08:41.597Z,9.50
2019-01-10T04:11:10.022Z,9.10
2019-01-10T04:13:38.442Z,7.40
2019-01-10T04:16:06.882Z,8.00
2019-01-10T04:18:35.280Z,8.37
2019-01-10T04:21:03.702Z,8.43
2019-01-10T04:23:32.120Z,8.40
2019-01-10T04:26:00.541Z,8.37
2019-01-10T04:28:28.965Z,10.07
2019-01-10T04:30:57.385Z,8.93
2019-01-10T04:33:25.794Z,9.33
2019-01-10T04:35:54.235Z,9.83
2019-01-10T04:38:22.652Z,9.90
2019-01-10T04:40:51.096Z,9.50
2019-01-10T04:43:19.501Z,10.27
2019-01-10T04:45:47.940Z,10.47
2019-01-10T04:48:16.344Z,10.90
2019-01-10T04:50:44.764Z,9.90
2019-01-10T04:53:13.199Z,10.20
2019-01-10T04:55:41.613Z,9.90
2019-01-10T04:58:12.829Z,9.27
2019-01-10T05:00:41.263Z,8.93
2019-01-10T05:03:09.741Z,8.83
2019-01-10T05:05:38.162Z,9.53
2019-01-10T05:08:06.573Z,11.50
2019-01-10T05:10:35.034Z,10.03
2019-01-10T05:13:03.436Z,8.47
2019-01-10T05:15:31.891Z,8.60
2019-01-10T05:18:00.305Z,9.33
2019-01-10T05:20:28.722Z,8.83
2019-01-10T05:22:57.138Z,12.53
2019-01-10T05:25:25.574Z,15.20
2019-01-10T05:27:53.972Z,9.43
2019-01-10T05:30:23.246Z,10.97
2019-01-10T05:32:52.145Z,8.73
2019-01-10T05:35:20.599Z,8.90
2019-01-10T05:37:49.137Z,9.00
2019-01-10T05:40:17.566Z,9.17
2019-01-10T05:42:46.014Z,9.87
2019-01-10T05:45:16.553Z,9.20
2019-01-10T05:47:44.982Z,9.13
2019-01-10T05:50:17.601Z,8.83
2019-01-10T05:52:45.374Z,9.27
2019-01-10T05:55:16.240Z,8.57
2019-01-10T05:57:44.679Z,9.17
2019-01-10T06:00:16.509Z,9.80
2019-01-10T06:02:44.939Z,9.77
2019-01-10T06:05:13.481Z,10.13
2019-01-10T06:07:41.919Z,10.60
2019-01-10T06:10:24.883Z,11.10
2019-01-10T06:12:53.310Z,10.77
2019-01-10T06:15:21.857Z,10.97
2019-01-10T06:17:50.377Z,10.80
2019-01-10T06:20:21.027Z,11.03
2019-01-10T06:22:49.449Z,9.97
2019-01-10T06:25:18.930Z,11.03
2019-01-10T06:27:47.357Z,10.70
2019-01-10T06:30:18.676Z,10.70
2019-01-10T06:32:47.105Z,10.47
2019-01-10T06:35:15.584Z,10.80
2019-01-10T06:37:44.076Z,13.13
2019-01-10T06:40:15.731Z,11.23
2019-01-10T06:42:52.238Z,11.90
2019-01-10T06:45:20.731Z,12.07
2019-01-10T06:47:49.225Z,10.90
2019-01-10T06:50:18.104Z,12.10
2019-01-10T06:52:46.882Z,11.63
2019-01-10T06:55:15.315Z,10.93
2019-01-10T06:57:43.812Z,10.77
2019-01-10T07:00:18.645Z,11.07
2019-01-10T07:02:47.508Z,10.80
2019-01-10T07:05:15.984Z,10.70
2019-01-10T07:07:44.521Z,11.40
2019-01-10T07:10:16.023Z,12.20
2019-01-10T07:12:44.453Z,11.70
2019-01-10T07:15:13.019Z,12.00
2019-01-10T07:17:41.447Z,10.90
2019-01-10T07:20:11.511Z,14.80
2019-01-10T07:22:45.347Z,13.53
2019-01-10T07:25:13.774Z,11.10
2019-01-10T07:27:42.434Z,11.27
2019-01-10T07:30:13.917Z,13.50
2019-01-10T07:32:42.341Z,10.77
2019-01-10T07:35:11.089Z,11.77
2019-01-10T07:37:39.581Z,12.37
2019-01-10T07:40:11.089Z,10.77
2019-01-10T07:42:39.523Z,10.60
2019-01-10T07:45:14.168Z,10.47
2019-01-10T07:47:49.261Z,10.57
2019-01-10T07:50:19.227Z,10.87
2019-01-10T07:52:48.388Z,10.70
2019-01-10T07:55:16.873Z,10.80
2019-01-10T07:57:45.315Z,12.37
2019-01-10T08:00:17.061Z,12.00
2019-01-10T08:02:45.631Z,13.23
2019-01-10T08:05:14.129Z,12.30
2019-01-10T08:07:42.697Z,11.50
2019-01-10T08:10:14.251Z,11.60
2019-01-10T08:12:42.741Z,16.43
2019-01-10T08:15:14.252Z,14.17
2019-01-10T08:17:42.681Z,13.20
2019-01-10T08:20:11.375Z,12.23
2019-01-10T08:22:40.019Z,12.80
2019-01-10T08:25:09.489Z,10.50
2019-01-10T08:27:37.913Z,10.50
2019-01-10T08:30:15.154Z,11.00
2019-01-10T08:32:43.586Z,10.50
2019-01-10T08:35:13.453Z,11.57
2019-01-10T08:37:41.909Z,11.43
2019-01-10T08:40:10.769Z,12.10
2019-01-10T08:42:39.190Z,12.23
2019-01-10T08:45:09.704Z,12.83
2019-01-10T08:47:38.167Z,11.43
2019-01-10T08:50:12.627Z,12.10
2019-01-10T08:52:41.055Z,11.20
2019-01-10T08:55:10.000Z,11.23
2019-01-10T08:57:38.456Z,11.60
2019-01-10T09:00:12.967Z,9.73
2019-01-10T09:02:41.423Z,11.27
2019-01-10T09:05:12.175Z,11.53
2019-01-10T09:07:40.247Z,10.03
2019-01-10T09:10:20.486Z,11.00
2019-01-10T09:12:49.076Z,11.57
2019-01-10T09:15:23.244Z,11.90
2019-01-10T09:17:47.803Z,12.97
2019-01-10T09:20:16.273Z,13.70
2019-01-10T09:22:44.765Z,11.07
2019-01-10T09:25:13.240Z,12.27
2019-01-10T09:27:41.670Z,10.80
2019-01-10T09:30:13.203Z,11.20
2019-01-10T09:32:41.710Z,16.33
2019-01-10T09:35:10.203Z,10.40
2019-01-10T09:37:39.589Z,11.67
2019-01-10T09:40:13.457Z,19.27
2019-01-10T09:42:42.346Z,16.87
2019-01-10T09:45:14.019Z,12.00
2019-01-10T09:47:42.569Z,13.90
2019-01-10T09:50:17.120Z,14.27
2019-01-10T09:52:46.492Z,12.93
2019-01-10T09:55:16.007Z,10.20
2019-01-10T09:57:44.412Z,9.17
2019-01-10T10:00:16.061Z,9.47
2019-01-10T10:02:44.472Z,8.23
2019-01-10T10:05:12.965Z,12.67
2019-01-10T10:07:41.445Z,10.10
2019-01-10T10:10:15.591Z,9.60
2019-01-10T10:12:44.090Z,9.80
2019-01-10T10:15:13.854Z,9.90
2019-01-10T10:17:42.256Z,9.57
2019-01-10T10:20:14.860Z,10.83
2019-01-10T10:22:43.319Z,11.57
2019-01-10T10:25:11.845Z,9.47
2019-01-10T10:27:40.314Z,9.33
2019-01-10T10:30:11.952Z,10.30
2019-01-10T10:32:40.380Z,10.00
2019-01-10T10:35:09.155Z,10.37
2019-01-10T10:37:37.566Z,10.57
2019-01-10T10:40:09.069Z,10.93
2019-01-10T10:42:37.472Z,11.20
2019-01-10T10:45:09.551Z,11.10
2019-01-10T10:47:37.953Z,9.40
2019-01-10T10:50:09.481Z,11.20
2019-01-10T10:52:37.882Z,10.90
2019-01-10T10:55:06.873Z,10.60
2019-01-10T10:57:35.295Z,12.70
2019-01-10T11:00:09.570Z,10.63
2019-01-10T11:02:37.976Z,10.70
2019-01-10T11:05:07.240Z,12.30
2019-01-10T11:07:35.724Z,10.60
2019-01-10T11:10:07.130Z,12.33
2019-01-10T11:12:35.684Z,11.20
2019-01-10T11:15:06.454Z,10.17
2019-01-10T11:17:34.879Z,9.90
2019-01-10T11:20:04.673Z,9.87
2019-01-10T11:22:33.072Z,9.53
2019-01-10T11:25:01.576Z,10.60
2019-01-10T11:27:30.973Z,9.20
2019-01-10T11:29:59.404Z,11.50
2019-01-10T11:32:27.832Z,10.60
2019-01-10T11:34:56.303Z,10.10
2019-01-10T11:37:24.713Z,10.07
2019-01-10T11:39:53.137Z,10.03
2019-01-10T11:42:21.561Z,9.80
2019-01-10T11:44:49.990Z,9.37
2019-01-10T11:47:18.393Z,10.33
2019-01-10T11:49:48.772Z,10.03
2019-01-10T11:52:17.209Z,9.87
2019-01-10T11:54:45.745Z,9.47
2019-01-10T11:57:14.151Z,9.80
2019-01-10T11:59:42.564Z,9.63
2019-01-10T12:02:10.991Z,10.03
2019-01-10T12:04:39.428Z,10.10
2019-01-10T12:07:07.905Z,9.70
2019-01-10T12:09:36.347Z,9.60
2019-01-10T12:12:04.753Z,10.00
2019-01-10T12:14:34.199Z,8.87
2019-01-10T12:17:02.619Z,9.90
2019-01-10T12:19:31.032Z,8.70
2019-01-10T12:21:59.449Z,10.30
2019-01-10T12:24:27.877Z,10.33
2019-01-10T12:26:56.288Z,10.00
2019-01-10T12:29:24.714Z,9.60
2019-01-10T12:31:54.067Z,12.00
2019-01-10T12:34:22.506Z,9.60
2019-01-10T12:37:00.005Z,9.67
2019-01-10T12:39:21.083Z,11.37
2019-01-10T12:41:49.493Z,9.90
2019-01-10T12:44:17.934Z,10.87
2019-01-10T12:46:46.355Z,10.70
2019-01-10T12:49:14.762Z,10.30
2019-01-10T12:51:43.228Z,11.20
2019-01-10T12:54:11.700Z,10.37
2019-01-10T12:56:40.135Z,9.87
2019-01-10T12:59:08.542Z,10.50
2019-01-10T13:01:36.965Z,8.80
2019-01-10T13:04:05.455Z,8.40
2019-01-10T13:06:33.906Z,8.77
2019-01-10T13:09:02.310Z,9.20
2019-01-10T13:11:30.754Z,9.20
2019-01-10T13:13:59.736Z,7.93
2019-01-10T13:16:28.286Z,8.67
2019-01-10T13:18:56.711Z,8.50
2019-01-10T13:21:25.146Z,8.40
2019-01-10T13:23:53.564Z,9.53
2019-01-10T13:26:22.003Z,8.27
2019-01-10T13:28:50.442Z,8.03
2019-01-10T13:31:18.861Z,8.60
2019-01-10T13:33:47.266Z,9.50
2019-01-10T13:36:15.707Z,6.97
2019-01-10T13:38:44.106Z,6.87
2019-01-10T13:41:12.529Z,6.90
2019-01-10T13:43:40.936Z,8.00
2019-01-10T13:46:10.430Z,6.70
2019-01-10T13:48:38.848Z,7.00
2019-01-10T13:51:07.273Z,7.07
2019-01-10T13:53:35.695Z,8.03
2019-01-10T13:56:04.378Z,7.33
2019-01-10T13:58:32.782Z,6.33
2019-01-10T14:01:01.228Z,7.20
2019-01-10T14:03:29.647Z,6.90
2019-01-10T14:05:58.072Z,7.30
2019-01-10T14:08:26.547Z,5.83
2019-01-10T14:10:54.996Z,6.60
2019-01-10T14:13:23.449Z,6.40
2019-01-10T14:15:51.859Z,6.73
2019-01-10T14:18:20.277Z,5.93
2019-01-10T14:20:48.756Z,6.80
2019-01-10T14:23:17.190Z,6.67
2019-01-10T14:25:45.661Z,5.97
2019-01-10T14:28:14.118Z,6.03
2019-01-10T14:30:42.774Z,6.90
2019-01-10T14:33:11.741Z,7.40
2019-01-10T14:35:40.152Z,7.00
2019-01-10T14:38:08.739Z,7.00
2019-01-10T14:40:38.431Z,7.63
2019-01-10T14:43:06.923Z,7.17
2019-01-10T14:45:36.005Z,6.20
2019-01-10T14:48:06.373Z,7.53
2019-01-10T14:50:34.838Z,6.90
2019-01-10T14:53:03.357Z,6.40
2019-01-10T14:55:31.928Z,8.50
2019-01-10T14:58:00.638Z,6.73
2019-01-10T15:00:29.080Z,7.47
2019-01-10T15:02:57.667Z,7.03
2019-01-10T15:05:26.146Z,7.37
2019-01-10T15:07:54.582Z,7.10
2019-01-10T15:10:23.007Z,8.17
2019-01-10T15:12:51.451Z,10.27
2019-01-10T15:15:21.509Z,8.40
2019-01-10T15:17:49.943Z,6.77
2019-01-10T15:20:21.103Z,6.70
2019-01-10T15:22:49.539Z,6.83
2019-01-10T15:25:17.938Z,7.47
2019-01-10T15:27:46.408Z,6.23
2019-01-10T15:30:19.881Z,6.90
2019-01-10T15:32:48.301Z,6.17
2019-01-10T15:35:16.877Z,7.70
2019-01-10T15:37:45.340Z,7.90
2019-01-10T15:40:22.688Z,8.43
2019-01-10T15:42:51.141Z,8.60
2019-01-10T15:45:19.717Z,7.40
2019-01-10T15:47:48.162Z,6.87
2019-01-10T15:50:18.609Z,7.37
2019-01-10T15:52:47.271Z,6.63
2019-01-10T15:55:20.282Z,6.40
2019-01-10T15:57:48.876Z,6.63
2019-01-10T16:00:22.141Z,7.63
2019-01-10T16:02:50.906Z,6.43
2019-01-10T16:05:19.387Z,6.57
2019-01-10T16:07:47.880Z,9.97
2019-01-10T16:10:18.140Z,9.80
2019-01-10T16:12:46.917Z,8.20
2019-01-10T16:15:17.934Z,8.07
2019-01-10T16:17:48.431Z,7.77
2019-01-10T16:20:16.909Z,7.73
2019-01-10T16:22:45.613Z,7.70
2019-01-10T16:25:19.689Z,8.70
2019-01-10T16:27:48.428Z,8.77
2019-01-10T16:30:19.436Z,7.97
2019-01-10T16:32:47.868Z,7.07
2019-01-10T16:35:16.264Z,7.00
2019-01-10T16:37:44.757Z,7.33
2019-01-10T16:40:15.895Z,7.47
2019-01-10T16:42:44.325Z,7.27
2019-01-10T16:45:16.061Z,8.00
2019-01-10T16:47:44.580Z,13.83
2019-01-10T16:50:14.960Z,13.17
2019-01-10T16:52:43.455Z,13.60
2019-01-10T16:55:13.527Z,9.37
2019-01-10T16:57:41.976Z,37.30
2019-01-10T17:00:19.753Z,6.90
2019-01-10T17:02:48.180Z,6.07
2019-01-10T17:05:16.648Z,7.63
2019-01-10T17:07:45.991Z,8.33
2019-01-10T17:10:16.366Z,7.50
2019-01-10T17:12:45.850Z,6.70
2019-01-10T17:15:21.483Z,8.50
2019-01-10T17:17:50.218Z,6.93
2019-01-10T17:20:21.529Z,6.87
2019-01-10T17:22:50.105Z,7.00
2019-01-10T17:25:18.956Z,6.50
2019-01-10T17:27:47.628Z,7.53
2019-01-10T17:30:24.923Z,7.40
2019-01-10T17:33:07.220Z,8.50
2019-01-10T17:35:35.717Z,7.20
2019-01-10T17:38:04.772Z,7.20
2019-01-10T17:40:33.982Z,8.20
2019-01-10T17:43:03.825Z,7.00
2019-01-10T17:45:33.063Z,7.67
2019-01-10T17:48:02.502Z,7.53
2019-01-10T17:50:30.935Z,8.07
2019-01-10T17:52:59.351Z,7.03
2019-01-10T17:55:27.795Z,7.67
2019-01-10T17:57:56.212Z,8.70
2019-01-10T18:00:28.076Z,10.10
2019-01-10T18:02:56.550Z,11.40
2019-01-10T18:05:25.046Z,7.47
2019-01-10T18:07:54.363Z,8.07
2019-01-10T18:10:23.058Z,10.77
2019-01-10T18:12:51.473Z,12.60
2019-01-10T18:15:23.276Z,8.93
2019-01-10T18:17:51.834Z,7.40
2019-01-10T18:20:23.089Z,6.67
2019-01-10T18:22:51.515Z,7.40
2019-01-10T18:25:20.015Z,6.63
2019-01-10T18:27:48.443Z,8.40
2019-01-10T18:30:19.649Z,7.37
2019-01-10T18:32:48.131Z,7.43
2019-01-10T18:35:37.491Z,7.30
2019-01-10T18:38:05.897Z,6.47
2019-01-10T18:40:34.759Z,6.33
2019-01-10T18:43:03.366Z,5.50
2019-01-10T18:45:31.792Z,6.00
2019-01-10T18:48:02.164Z,5.53
2019-01-10T18:50:30.766Z,5.60
2019-01-10T18:52:59.209Z,5.70
2019-01-10T18:55:29.013Z,5.70
2019-01-10T18:57:57.612Z,7.33
2019-01-10T19:00:28.726Z,5.53
2019-01-10T19:02:57.868Z,5.73
2019-01-10T19:05:27.678Z,5.63
2019-01-10T19:07:56.097Z,5.00
2019-01-10T19:10:24.613Z,7.00
2019-01-10T19:12:55.010Z,7.00
2019-01-10T19:15:23.533Z,8.47
2019-01-10T19:17:51.963Z,10.17
2019-01-10T19:20:23.032Z,11.13
2019-01-10T19:22:51.515Z,10.40
2019-01-10T19:25:19.929Z,9.57
2019-01-10T19:27:48.484Z,20.67
2019-01-10T19:30:28.133Z,9.80
2019-01-10T19:32:56.681Z,7.33
2019-01-10T19:35:25.108Z,10.20
2019-01-10T19:37:53.880Z,7.67
2019-01-10T19:40:23.167Z,7.70
2019-01-10T19:42:51.642Z,8.33
2019-01-10T19:45:21.820Z,8.27
2019-01-10T19:47:50.522Z,8.03
2019-01-10T19:50:24.321Z,8.30
2019-01-10T19:52:52.827Z,8.23
2019-01-10T19:55:22.556Z,8.20
2019-01-10T19:57:51.393Z,9.37
2019-01-10T20:00:22.994Z,8.20
2019-01-10T20:02:51.487Z,8.40
2019-01-10T20:05:19.986Z,8.93
2019-01-10T20:07:48.411Z,8.80
2019-01-10T20:10:16.904Z,8.10
2019-01-10T20:12:45.322Z,8.30
2019-01-10T20:15:13.910Z,8.30
2019-01-10T20:17:42.397Z,9.27
2019-01-10T20:20:23.432Z,10.47
2019-01-10T20:22:51.996Z,13.07
2019-01-10T20:25:20.406Z,12.13
2019-01-10T20:27:48.864Z,10.47
2019-01-10T20:30:18.418Z,10.53
2019-01-10T20:32:46.916Z,10.30
2019-01-10T20:35:15.573Z,11.03
2019-01-10T20:37:44.061Z,8.80
2019-01-10T20:40:14.681Z,8.43
2019-01-10T20:42:43.117Z,8.77
2019-01-10T20:45:13.681Z,14.00
2019-01-10T20:47:42.632Z,11.80
2019-01-10T20:50:16.059Z,11.90
2019-01-10T20:52:45.442Z,9.90
2019-01-10T20:55:15.702Z,11.47
2019-01-10T20:57:44.123Z,10.57
2019-01-10T21:00:15.785Z,10.37
2019-01-10T21:02:44.290Z,10.20
2019-01-10T21:05:12.891Z,10.90
2019-01-10T21:07:41.345Z,10.27
2019-01-10T21:10:15.439Z,9.50
2019-01-10T21:12:44.040Z,9.70
2019-01-10T21:15:21.066Z,8.70
2019-01-10T21:17:49.649Z,10.03
2019-01-10T21:20:18.127Z,9.17
2019-01-10T21:22:49.406Z,14.20
2019-01-10T21:25:18.051Z,12.97
2019-01-10T21:27:48.133Z,8.80
2019-01-10T21:30:23.770Z,7.57
2019-01-10T21:32:52.217Z,8.10
2019-01-10T21:35:20.765Z,8.10
2019-01-10T21:37:49.521Z,9.50
2019-01-10T21:40:20.285Z,8.90
2019-01-10T21:42:49.572Z,7.63
2019-01-10T21:45:21.411Z,9.60
2019-01-10T21:47:49.918Z,7.43
2019-01-10T21:50:20.834Z,8.53
2019-01-10T21:52:49.256Z,7.93
2019-01-10T21:55:18.705Z,8.83
2019-01-10T21:57:47.585Z,10.37
2019-01-10T22:00:27.772Z,8.10
2019-01-10T22:02:56.705Z,8.90
2019-01-10T22:05:25.142Z,8.17
2019-01-10T22:07:54.651Z,8.47
2019-01-10T22:10:23.075Z,8.50
2019-01-10T22:12:51.521Z,9.10
2019-01-10T22:15:19.912Z,8.80
2019-01-10T22:17:48.355Z,8.73
2019-01-10T22:20:19.400Z,9.50
2019-01-10T22:22:47.900Z,7.20
2019-01-10T22:25:16.529Z,8.73
2019-01-10T22:27:44.964Z,8.63
2019-01-10T22:30:19.096Z,9.70
2019-01-10T22:32:47.904Z,8.00
2019-01-10T22:35:19.933Z,10.57
2019-01-10T22:37:48.698Z,9.60
2019-01-10T22:40:19.144Z,8.20
2019-01-10T22:42:47.785Z,7.93
2019-01-10T22:45:17.069Z,10.27
2019-01-10T22:47:45.745Z,11.10
2019-01-10T22:50:19.600Z,10.83
2019-01-10T22:52:48.261Z,10.20
2019-01-10T22:55:18.020Z,9.90
2019-01-10T22:57:46.441Z,9.47
2019-01-10T23:00:34.884Z,8.50
2019-01-10T23:03:10.523Z,9.50
2019-01-10T23:05:44.698Z,13.80
2019-01-10T23:08:13.211Z,16.83
2019-01-10T23:10:41.776Z,13.17
2019-01-10T23:13:10.673Z,16.80
2019-01-10T23:15:39.108Z,19.17
2019-01-10T23:18:08.087Z,23.13
2019-01-10T23:20:36.595Z,16.20
2019-01-10T23:23:07.937Z,16.77
2019-01-10T23:25:36.378Z,12.15
2019-01-10T23:28:05.357Z,10.45
2019-01-10T23:30:56.438Z,10.90
2019-01-10T23:33:25.924Z,10.80
2019-01-10T23:35:59.317Z,9.88
2019-01-10T23:38:28.301Z,11.38
2019-01-10T23:40:57.270Z,12.53
2019-01-10T23:43:25.716Z,12.60
2019-01-10T23:45:55.125Z,14.23
2019-01-10T23:48:24.233Z,12.65
2019-01-10T23:50:52.738Z,12.28
2019-01-10T23:53:21.249Z,11.73
2019-01-10T23:55:49.749Z,11.28
2019-01-10T23:58:18.238Z,10.68
